sensor_id;sensor_type;location;lat;lon;timestamp;P1;durP1;ratioP1;P2;durP2;ratioP2
29452;SDS011;16424;50.956;5.320;2024-02-21T00:00:44;105.53;;;98.35;;
29452;SDS011;16424;50.956;5.320;2024-02-21T00:03:10;109.85;;;102.47;;
29452;SDS011;16424;50.956;5.320;2024-02-21T00:05:36;102.43;;;95.53;;
29452;SDS011;16424;50.956;5.320;2024-02-21T00:08:02;105.18;;;97.88;;
29452;SDS011;16424;50.956;5.320;2024-02-21T00:10:30;106.55;;;98.82;;
29452;SDS011;16424;50.956;5.320;2024-02-21T00:13:00;110.40;;;102.25;;
29452;SDS011;16424;50.956;5.320;2024-02-21T00:15:26;104.05;;;97.20;;
29452;SDS011;16424;50.956;5.320;2024-02-21T00:17:52;104.35;;;97.15;;
29452;SDS011;16424;50.956;5.320;2024-02-21T00:20:18;101.75;;;95.05;;
29452;SDS011;16424;50.956;5.320;2024-02-21T00:22:44;103.05;;;96.30;;
29452;SDS011;16424;50.956;5.320;2024-02-21T00:25:10;106.53;;;99.00;;
29452;SDS011;16424;50.956;5.320;2024-02-21T00:27:36;106.85;;;99.75;;
29452;SDS011;16424;50.956;5.320;2024-02-21T00:30:02;106.82;;;99.57;;
29452;SDS011;16424;50.956;5.320;2024-02-21T00:32:28;103.97;;;95.35;;
29452;SDS011;16424;50.956;5.320;2024-02-21T00:34:53;108.78;;;100.78;;
29452;SDS011;16424;50.956;5.320;2024-02-21T00:37:19;106.70;;;98.97;;
29452;SDS011;16424;50.956;5.320;2024-02-21T00:39:45;103.53;;;96.28;;
29452;SDS011;16424;50.956;5.320;2024-02-21T00:42:11;108.60;;;101.60;;
29452;SDS011;16424;50.956;5.320;2024-02-21T00:44:36;110.57;;;103.15;;
29452;SDS011;16424;50.956;5.320;2024-02-21T00:47:02;101.18;;;94.43;;
29452;SDS011;16424;50.956;5.320;2024-02-21T00:49:27;102.05;;;95.40;;
29452;SDS011;16424;50.956;5.320;2024-02-21T00:51:53;101.47;;;94.18;;
29452;SDS011;16424;50.956;5.320;2024-02-21T00:54:19;105.43;;;97.53;;
29452;SDS011;16424;50.956;5.320;2024-02-21T00:56:44;102.15;;;95.43;;
29452;SDS011;16424;50.956;5.320;2024-02-21T00:59:10;102.30;;;95.20;;
29452;SDS011;16424;50.956;5.320;2024-02-21T01:01:36;104.55;;;96.90;;
29452;SDS011;16424;50.956;5.320;2024-02-21T01:04:01;103.60;;;96.00;;
29452;SDS011;16424;50.956;5.320;2024-02-21T01:06:27;103.93;;;97.20;;
29452;SDS011;16424;50.956;5.320;2024-02-21T01:08:53;104.45;;;97.70;;
29452;SDS011;16424;50.956;5.320;2024-02-21T01:11:18;102.88;;;96.40;;
29452;SDS011;16424;50.956;5.320;2024-02-21T01:13:44;102.32;;;95.40;;
29452;SDS011;16424;50.956;5.320;2024-02-21T01:16:09;98.88;;;92.45;;
29452;SDS011;16424;50.956;5.320;2024-02-21T01:18:38;106.20;;;99.22;;
29452;SDS011;16424;50.956;5.320;2024-02-21T01:21:07;101.38;;;95.28;;
29452;SDS011;16424;50.956;5.320;2024-02-21T01:23:36;102.75;;;96.05;;
29452;SDS011;16424;50.956;5.320;2024-02-21T01:26:02;100.68;;;93.90;;
29452;SDS011;16424;50.956;5.320;2024-02-21T01:28:28;103.25;;;95.78;;
29452;SDS011;16424;50.956;5.320;2024-02-21T01:30:55;101.78;;;94.68;;
29452;SDS011;16424;50.956;5.320;2024-02-21T01:33:21;103.55;;;96.82;;
29452;SDS011;16424;50.956;5.320;2024-02-21T01:35:47;106.45;;;99.03;;
29452;SDS011;16424;50.956;5.320;2024-02-21T01:38:12;105.68;;;99.00;;
29452;SDS011;16424;50.956;5.320;2024-02-21T01:40:38;101.15;;;94.40;;
29452;SDS011;16424;50.956;5.320;2024-02-21T01:43:14;107.97;;;100.47;;
29452;SDS011;16424;50.956;5.320;2024-02-21T01:45:41;103.35;;;96.82;;
29452;SDS011;16424;50.956;5.320;2024-02-21T01:48:07;102.22;;;95.13;;
29452;SDS011;16424;50.956;5.320;2024-02-21T01:50:33;101.50;;;94.95;;
29452;SDS011;16424;50.956;5.320;2024-02-21T01:52:58;98.45;;;92.32;;
29452;SDS011;16424;50.956;5.320;2024-02-21T01:55:25;102.82;;;95.53;;
29452;SDS011;16424;50.956;5.320;2024-02-21T01:57:51;101.05;;;94.55;;
29452;SDS011;16424;50.956;5.320;2024-02-21T02:00:16;102.47;;;96.15;;
29452;SDS011;16424;50.956;5.320;2024-02-21T02:02:42;103.07;;;96.45;;
29452;SDS011;16424;50.956;5.320;2024-02-21T02:05:09;101.55;;;95.18;;
29452;SDS011;16424;50.956;5.320;2024-02-21T02:07:36;104.32;;;98.22;;
29452;SDS011;16424;50.956;5.320;2024-02-21T02:10:02;104.75;;;98.15;;
29452;SDS011;16424;50.956;5.320;2024-02-21T02:12:27;104.70;;;97.88;;
29452;SDS011;16424;50.956;5.320;2024-02-21T02:15:03;105.82;;;98.82;;
29452;SDS011;16424;50.956;5.320;2024-02-21T02:17:32;104.57;;;97.35;;
29452;SDS011;16424;50.956;5.320;2024-02-21T02:19:57;104.72;;;97.78;;
29452;SDS011;16424;50.956;5.320;2024-02-21T02:22:25;104.53;;;98.25;;
29452;SDS011;16424;50.956;5.320;2024-02-21T02:24:57;103.93;;;97.85;;
29452;SDS011;16424;50.956;5.320;2024-02-21T02:27:22;104.30;;;97.65;;
29452;SDS011;16424;50.956;5.320;2024-02-21T02:29:49;105.30;;;98.30;;
29452;SDS011;16424;50.956;5.320;2024-02-21T02:32:16;103.57;;;97.30;;
29452;SDS011;16424;50.956;5.320;2024-02-21T02:34:41;102.85;;;96.25;;
29452;SDS011;16424;50.956;5.320;2024-02-21T02:37:07;105.35;;;98.80;;
29452;SDS011;16424;50.956;5.320;2024-02-21T02:39:33;104.53;;;97.47;;
29452;SDS011;16424;50.956;5.320;2024-02-21T02:41:58;101.60;;;94.72;;
29452;SDS011;16424;50.956;5.320;2024-02-21T02:44:24;105.28;;;98.88;;
29452;SDS011;16424;50.956;5.320;2024-02-21T02:46:49;103.57;;;96.97;;
29452;SDS011;16424;50.956;5.320;2024-02-21T02:49:15;100.65;;;94.65;;
29452;SDS011;16424;50.956;5.320;2024-02-21T02:51:41;108.22;;;101.03;;
29452;SDS011;16424;50.956;5.320;2024-02-21T02:54:08;103.97;;;97.88;;
29452;SDS011;16424;50.956;5.320;2024-02-21T02:56:34;104.82;;;98.13;;
29452;SDS011;16424;50.956;5.320;2024-02-21T02:58:59;105.10;;;98.70;;
29452;SDS011;16424;50.956;5.320;2024-02-21T03:01:25;102.85;;;96.65;;
29452;SDS011;16424;50.956;5.320;2024-02-21T03:03:51;104.15;;;97.53;;
29452;SDS011;16424;50.956;5.320;2024-02-21T03:06:16;106.22;;;99.70;;
29452;SDS011;16424;50.956;5.320;2024-02-21T03:08:42;102.80;;;95.72;;
29452;SDS011;16424;50.956;5.320;2024-02-21T03:11:08;106.03;;;99.30;;
29452;SDS011;16424;50.956;5.320;2024-02-21T03:13:33;104.80;;;98.47;;
29452;SDS011;16424;50.956;5.320;2024-02-21T03:15:59;102.60;;;96.60;;
29452;SDS011;16424;50.956;5.320;2024-02-21T03:18:25;104.53;;;97.97;;
29452;SDS011;16424;50.956;5.320;2024-02-21T03:20:50;105.90;;;99.13;;
29452;SDS011;16424;50.956;5.320;2024-02-21T03:23:16;103.88;;;97.22;;
29452;SDS011;16424;50.956;5.320;2024-02-21T03:25:41;103.47;;;97.07;;
29452;SDS011;16424;50.956;5.320;2024-02-21T03:28:07;112.50;;;105.63;;
29452;SDS011;16424;50.956;5.320;2024-02-21T03:30:33;102.95;;;96.55;;
29452;SDS011;16424;50.956;5.320;2024-02-21T03:32:59;105.35;;;98.43;;
29452;SDS011;16424;50.956;5.320;2024-02-21T03:35:26;99.30;;;92.82;;
29452;SDS011;16424;50.956;5.320;2024-02-21T03:37:52;103.78;;;97.10;;
29452;SDS011;16424;50.956;5.320;2024-02-21T03:40:18;101.68;;;95.10;;
29452;SDS011;16424;50.956;5.320;2024-02-21T03:42:44;101.70;;;95.88;;
29452;SDS011;16424;50.956;5.320;2024-02-21T03:45:09;105.00;;;98.65;;
29452;SDS011;16424;50.956;5.320;2024-02-21T03:47:35;105.88;;;99.35;;
29452;SDS011;16424;50.956;5.320;2024-02-21T03:50:01;104.05;;;96.80;;
29452;SDS011;16424;50.956;5.320;2024-02-21T03:52:26;105.43;;;98.90;;
29452;SDS011;16424;50.956;5.320;2024-02-21T03:54:52;104.80;;;98.60;;
29452;SDS011;16424;50.956;5.320;2024-02-21T03:57:19;103.97;;;97.47;;
29452;SDS011;16424;50.956;5.320;2024-02-21T03:59:45;102.13;;;95.97;;
29452;SDS011;16424;50.956;5.320;2024-02-21T04:02:11;100.40;;;94.03;;
29452;SDS011;16424;50.956;5.320;2024-02-21T04:04:37;102.90;;;96.22;;
29452;SDS011;16424;50.956;5.320;2024-02-21T04:07:03;104.43;;;98.05;;
29452;SDS011;16424;50.956;5.320;2024-02-21T04:09:33;102.32;;;95.82;;
29452;SDS011;16424;50.956;5.320;2024-02-21T04:11:59;105.78;;;99.20;;
29452;SDS011;16424;50.956;5.320;2024-02-21T04:14:25;103.55;;;97.13;;
29452;SDS011;16424;50.956;5.320;2024-02-21T04:16:51;107.45;;;100.82;;
29452;SDS011;16424;50.956;5.320;2024-02-21T04:19:16;104.97;;;98.65;;
29452;SDS011;16424;50.956;5.320;2024-02-21T04:21:42;107.22;;;100.80;;
29452;SDS011;16424;50.956;5.320;2024-02-21T04:24:08;106.35;;;100.00;;
29452;SDS011;16424;50.956;5.320;2024-02-21T04:26:34;103.13;;;96.47;;
29452;SDS011;16424;50.956;5.320;2024-02-21T04:28:59;101.75;;;95.40;;
29452;SDS011;16424;50.956;5.320;2024-02-21T04:31:25;105.03;;;98.32;;
29452;SDS011;16424;50.956;5.320;2024-02-21T04:33:51;107.05;;;100.20;;
29452;SDS011;16424;50.956;5.320;2024-02-21T04:36:16;105.50;;;99.10;;
29452;SDS011;16424;50.956;5.320;2024-02-21T04:38:42;104.70;;;98.32;;
29452;SDS011;16424;50.956;5.320;2024-02-21T04:41:08;103.32;;;96.63;;
29452;SDS011;16424;50.956;5.320;2024-02-21T04:43:34;105.90;;;99.18;;
29452;SDS011;16424;50.956;5.320;2024-02-21T04:46:00;109.50;;;102.88;;
29452;SDS011;16424;50.956;5.320;2024-02-21T04:48:25;108.10;;;101.63;;
29452;SDS011;16424;50.956;5.320;2024-02-21T04:50:52;106.70;;;100.00;;
29452;SDS011;16424;50.956;5.320;2024-02-21T04:53:18;105.15;;;98.35;;
29452;SDS011;16424;50.956;5.320;2024-02-21T04:55:43;107.97;;;101.03;;
29452;SDS011;16424;50.956;5.320;2024-02-21T04:58:09;107.70;;;101.25;;
29452;SDS011;16424;50.956;5.320;2024-02-21T05:00:35;106.88;;;100.15;;
29452;SDS011;16424;50.956;5.320;2024-02-21T05:03:00;105.75;;;99.28;;
29452;SDS011;16424;50.956;5.320;2024-02-21T05:05:26;105.22;;;98.75;;
29452;SDS011;16424;50.956;5.320;2024-02-21T05:07:52;107.47;;;100.63;;
29452;SDS011;16424;50.956;5.320;2024-02-21T05:10:17;97.90;;;91.63;;
29452;SDS011;16424;50.956;5.320;2024-02-21T05:12:44;105.43;;;98.97;;
29452;SDS011;16424;50.956;5.320;2024-02-21T05:15:10;102.63;;;96.25;;
29452;SDS011;16424;50.956;5.320;2024-02-21T05:17:35;101.68;;;95.45;;
29452;SDS011;16424;50.956;5.320;2024-02-21T05:20:01;98.85;;;92.60;;
29452;SDS011;16424;50.956;5.320;2024-02-21T05:22:27;101.95;;;95.72;;
29452;SDS011;16424;50.956;5.320;2024-02-21T05:24:52;100.22;;;93.93;;
29452;SDS011;16424;50.956;5.320;2024-02-21T05:27:18;106.10;;;99.15;;
29452;SDS011;16424;50.956;5.320;2024-02-21T05:29:44;102.43;;;96.28;;
29452;SDS011;16424;50.956;5.320;2024-02-21T05:32:09;102.50;;;96.50;;
29452;SDS011;16424;50.956;5.320;2024-02-21T05:34:35;102.35;;;96.30;;
29452;SDS011;16424;50.956;5.320;2024-02-21T05:37:01;99.03;;;93.15;;
29452;SDS011;16424;50.956;5.320;2024-02-21T05:39:26;98.93;;;93.35;;
29452;SDS011;16424;50.956;5.320;2024-02-21T05:41:54;99.50;;;93.80;;
29452;SDS011;16424;50.956;5.320;2024-02-21T05:44:20;99.47;;;93.70;;
29452;SDS011;16424;50.956;5.320;2024-02-21T05:46:47;100.22;;;94.22;;
29452;SDS011;16424;50.956;5.320;2024-02-21T05:49:12;99.32;;;93.50;;
29452;SDS011;16424;50.956;5.320;2024-02-21T05:51:39;98.50;;;92.88;;
29452;SDS011;16424;50.956;5.320;2024-02-21T05:54:05;99.38;;;93.50;;
29452;SDS011;16424;50.956;5.320;2024-02-21T05:56:32;103.57;;;97.35;;
29452;SDS011;16424;50.956;5.320;2024-02-21T05:59:00;128.20;;;120.35;;
29452;SDS011;16424;50.956;5.320;2024-02-21T06:01:25;97.53;;;92.22;;
29452;SDS011;16424;50.956;5.320;2024-02-21T06:03:51;97.35;;;91.53;;
29452;SDS011;16424;50.956;5.320;2024-02-21T06:06:17;97.50;;;91.97;;
29452;SDS011;16424;50.956;5.320;2024-02-21T06:08:42;100.10;;;94.57;;
29452;SDS011;16424;50.956;5.320;2024-02-21T06:11:08;104.35;;;98.07;;
29452;SDS011;16424;50.956;5.320;2024-02-21T06:13:37;101.47;;;95.60;;
29452;SDS011;16424;50.956;5.320;2024-02-21T06:16:04;95.88;;;90.20;;
29452;SDS011;16424;50.956;5.320;2024-02-21T06:18:31;99.30;;;93.00;;
29452;SDS011;16424;50.956;5.320;2024-02-21T06:20:56;118.50;;;111.70;;
29452;SDS011;16424;50.956;5.320;2024-02-21T06:23:22;96.85;;;90.88;;
29452;SDS011;16424;50.956;5.320;2024-02-21T06:25:47;97.43;;;91.57;;
29452;SDS011;16424;50.956;5.320;2024-02-21T06:28:13;110.93;;;103.97;;
29452;SDS011;16424;50.956;5.320;2024-02-21T06:30:39;99.03;;;93.55;;
29452;SDS011;16424;50.956;5.320;2024-02-21T06:33:05;100.70;;;94.75;;
29452;SDS011;16424;50.956;5.320;2024-02-21T06:35:32;97.65;;;91.65;;
29452;SDS011;16424;50.956;5.320;2024-02-21T06:37:58;94.60;;;89.13;;
29452;SDS011;16424;50.956;5.320;2024-02-21T06:40:24;99.97;;;94.00;;
29452;SDS011;16424;50.956;5.320;2024-02-21T06:42:50;97.50;;;91.88;;
29452;SDS011;16424;50.956;5.320;2024-02-21T06:45:16;98.68;;;92.82;;
29452;SDS011;16424;50.956;5.320;2024-02-21T06:47:42;99.40;;;93.53;;
29452;SDS011;16424;50.956;5.320;2024-02-21T06:50:08;100.75;;;94.57;;
29452;SDS011;16424;50.956;5.320;2024-02-21T06:52:34;100.93;;;94.97;;
29452;SDS011;16424;50.956;5.320;2024-02-21T06:55:01;98.90;;;92.53;;
29452;SDS011;16424;50.956;5.320;2024-02-21T06:57:28;100.22;;;93.90;;
29452;SDS011;16424;50.956;5.320;2024-02-21T06:59:54;111.97;;;105.45;;
29452;SDS011;16424;50.956;5.320;2024-02-21T07:02:19;93.05;;;87.25;;
29452;SDS011;16424;50.956;5.320;2024-02-21T07:04:45;96.78;;;90.93;;
29452;SDS011;16424;50.956;5.320;2024-02-21T07:07:11;97.07;;;91.40;;
29452;SDS011;16424;50.956;5.320;2024-02-21T07:09:37;93.53;;;87.80;;
29452;SDS011;16424;50.956;5.320;2024-02-21T07:12:03;110.22;;;103.45;;
29452;SDS011;16424;50.956;5.320;2024-02-21T07:14:29;91.22;;;85.30;;
29452;SDS011;16424;50.956;5.320;2024-02-21T07:16:57;93.95;;;88.00;;
29452;SDS011;16424;50.956;5.320;2024-02-21T07:19:22;88.28;;;83.10;;
29452;SDS011;16424;50.956;5.320;2024-02-21T07:21:48;93.22;;;87.35;;
29452;SDS011;16424;50.956;5.320;2024-02-21T07:24:14;90.43;;;84.88;;
29452;SDS011;16424;50.956;5.320;2024-02-21T07:26:43;90.00;;;84.45;;
29452;SDS011;16424;50.956;5.320;2024-02-21T07:29:09;91.90;;;86.18;;
29452;SDS011;16424;50.956;5.320;2024-02-21T07:31:41;106.05;;;99.95;;
29452;SDS011;16424;50.956;5.320;2024-02-21T07:34:08;97.35;;;90.63;;
29452;SDS011;16424;50.956;5.320;2024-02-21T07:36:34;89.43;;;84.10;;
29452;SDS011;16424;50.956;5.320;2024-02-21T07:39:00;95.65;;;89.10;;
29452;SDS011;16424;50.956;5.320;2024-02-21T07:41:26;94.60;;;88.82;;
29452;SDS011;16424;50.956;5.320;2024-02-21T07:43:55;91.95;;;86.32;;
29452;SDS011;16424;50.956;5.320;2024-02-21T07:46:21;95.30;;;88.93;;
29452;SDS011;16424;50.956;5.320;2024-02-21T07:48:47;93.93;;;88.40;;
29452;SDS011;16424;50.956;5.320;2024-02-21T07:51:13;96.20;;;90.43;;
29452;SDS011;16424;50.956;5.320;2024-02-21T07:53:38;95.28;;;89.55;;
29452;SDS011;16424;50.956;5.320;2024-02-21T07:56:09;90.57;;;85.13;;
29452;SDS011;16424;50.956;5.320;2024-02-21T07:58:35;106.82;;;100.32;;
29452;SDS011;16424;50.956;5.320;2024-02-21T08:01:01;97.22;;;91.50;;
29452;SDS011;16424;50.956;5.320;2024-02-21T08:03:27;91.47;;;85.95;;
29452;SDS011;16424;50.956;5.320;2024-02-21T08:05:52;96.45;;;90.65;;
29452;SDS011;16424;50.956;5.320;2024-02-21T08:08:18;102.82;;;96.45;;
29452;SDS011;16424;50.956;5.320;2024-02-21T08:10:46;97.20;;;91.07;;
29452;SDS011;16424;50.956;5.320;2024-02-21T08:13:12;112.38;;;105.55;;
29452;SDS011;16424;50.956;5.320;2024-02-21T08:15:37;97.90;;;92.25;;
29452;SDS011;16424;50.956;5.320;2024-02-21T08:18:04;105.57;;;99.57;;
29452;SDS011;16424;50.956;5.320;2024-02-21T08:20:30;103.20;;;96.20;;
29452;SDS011;16424;50.956;5.320;2024-02-21T08:22:56;101.50;;;95.40;;
29452;SDS011;16424;50.956;5.320;2024-02-21T08:25:21;102.05;;;96.15;;
29452;SDS011;16424;50.956;5.320;2024-02-21T08:27:47;110.60;;;104.35;;
29452;SDS011;16424;50.956;5.320;2024-02-21T08:30:13;106.60;;;100.80;;
29452;SDS011;16424;50.956;5.320;2024-02-21T08:32:39;116.03;;;108.70;;
29452;SDS011;16424;50.956;5.320;2024-02-21T08:35:04;130.48;;;123.13;;
29452;SDS011;16424;50.956;5.320;2024-02-21T08:37:31;116.30;;;109.88;;
29452;SDS011;16424;50.956;5.320;2024-02-21T08:39:56;111.75;;;105.57;;
29452;SDS011;16424;50.956;5.320;2024-02-21T08:42:22;115.68;;;108.85;;
29452;SDS011;16424;50.956;5.320;2024-02-21T08:44:48;117.18;;;110.53;;
29452;SDS011;16424;50.956;5.320;2024-02-21T08:47:14;120.35;;;113.63;;
29452;SDS011;16424;50.956;5.320;2024-02-21T08:49:39;123.13;;;116.05;;
29452;SDS011;16424;50.956;5.320;2024-02-21T08:52:05;120.25;;;113.60;;
29452;SDS011;16424;50.956;5.320;2024-02-21T08:54:31;134.27;;;127.07;;
29452;SDS011;16424;50.956;5.320;2024-02-21T08:57:00;120.20;;;113.32;;
29452;SDS011;16424;50.956;5.320;2024-02-21T08:59:25;125.22;;;118.05;;
29452;SDS011;16424;50.956;5.320;2024-02-21T09:01:54;117.63;;;110.95;;
29452;SDS011;16424;50.956;5.320;2024-02-21T09:04:19;130.48;;;122.15;;
29452;SDS011;16424;50.956;5.320;2024-02-21T09:06:45;144.27;;;136.13;;
29452;SDS011;16424;50.956;5.320;2024-02-21T09:09:11;117.90;;;111.13;;
29452;SDS011;16424;50.956;5.320;2024-02-21T09:11:37;118.55;;;111.97;;
29452;SDS011;16424;50.956;5.320;2024-02-21T09:14:03;137.25;;;129.80;;
29452;SDS011;16424;50.956;5.320;2024-02-21T09:16:30;146.60;;;138.48;;
29452;SDS011;16424;50.956;5.320;2024-02-21T09:18:57;119.57;;;112.88;;
29452;SDS011;16424;50.956;5.320;2024-02-21T09:21:22;123.60;;;116.80;;
29452;SDS011;16424;50.956;5.320;2024-02-21T09:23:48;120.45;;;113.50;;
29452;SDS011;16424;50.956;5.320;2024-02-21T09:26:14;157.52;;;149.07;;
29452;SDS011;16424;50.956;5.320;2024-02-21T09:28:42;121.63;;;115.25;;
29452;SDS011;16424;50.956;5.320;2024-02-21T09:31:11;123.35;;;116.70;;
29452;SDS011;16424;50.956;5.320;2024-02-21T09:33:36;122.30;;;115.57;;
29452;SDS011;16424;50.956;5.320;2024-02-21T09:36:02;123.95;;;117.07;;
29452;SDS011;16424;50.956;5.320;2024-02-21T09:38:30;123.22;;;116.47;;
29452;SDS011;16424;50.956;5.320;2024-02-21T09:41:00;125.00;;;118.13;;
29452;SDS011;16424;50.956;5.320;2024-02-21T09:43:29;124.47;;;117.18;;
29452;SDS011;16424;50.956;5.320;2024-02-21T09:45:57;127.45;;;120.35;;
29452;SDS011;16424;50.956;5.320;2024-02-21T09:51:01;123.38;;;115.60;;
29452;SDS011;16424;50.956;5.320;2024-02-21T09:53:28;120.25;;;113.15;;
29452;SDS011;16424;50.956;5.320;2024-02-21T09:55:57;124.63;;;117.95;;
29452;SDS011;16424;50.956;5.320;2024-02-21T09:58:23;120.88;;;114.47;;
29452;SDS011;16424;50.956;5.320;2024-02-21T10:00:52;124.78;;;117.75;;
29452;SDS011;16424;50.956;5.320;2024-02-21T10:03:18;122.05;;;115.80;;
29452;SDS011;16424;50.956;5.320;2024-02-21T10:05:47;125.72;;;118.50;;
29452;SDS011;16424;50.956;5.320;2024-02-21T10:08:15;120.63;;;114.15;;
29452;SDS011;16424;50.956;5.320;2024-02-21T10:10:44;119.75;;;113.45;;
29452;SDS011;16424;50.956;5.320;2024-02-21T10:13:10;119.65;;;112.95;;
29452;SDS011;16424;50.956;5.320;2024-02-21T10:15:47;120.78;;;114.35;;
29452;SDS011;16424;50.956;5.320;2024-02-21T10:18:15;120.55;;;113.97;;
29452;SDS011;16424;50.956;5.320;2024-02-21T10:20:43;126.38;;;119.22;;
29452;SDS011;16424;50.956;5.320;2024-02-21T10:23:09;130.88;;;123.72;;
29452;SDS011;16424;50.956;5.320;2024-02-21T10:25:35;129.05;;;121.78;;
29452;SDS011;16424;50.956;5.320;2024-02-21T10:28:03;132.60;;;125.43;;
29452;SDS011;16424;50.956;5.320;2024-02-21T10:30:29;127.95;;;120.97;;
29452;SDS011;16424;50.956;5.320;2024-02-21T10:32:55;136.25;;;128.60;;
29452;SDS011;16424;50.956;5.320;2024-02-21T10:35:29;126.45;;;119.05;;
29452;SDS011;16424;50.956;5.320;2024-02-21T10:37:56;143.93;;;136.35;;
29452;SDS011;16424;50.956;5.320;2024-02-21T10:40:26;114.53;;;108.10;;
29452;SDS011;16424;50.956;5.320;2024-02-21T10:42:58;127.30;;;119.72;;
29452;SDS011;16424;50.956;5.320;2024-02-21T10:45:29;122.20;;;115.53;;
29452;SDS011;16424;50.956;5.320;2024-02-21T10:48:10;135.02;;;127.63;;
29452;SDS011;16424;50.956;5.320;2024-02-21T10:59:00;117.60;;;110.82;;
29452;SDS011;16424;50.956;5.320;2024-02-21T11:01:28;125.68;;;118.88;;
29452;SDS011;16424;50.956;5.320;2024-02-21T11:03:56;131.02;;;124.03;;
29452;SDS011;16424;50.956;5.320;2024-02-21T11:06:35;119.10;;;112.57;;
29452;SDS011;16424;50.956;5.320;2024-02-21T11:09:11;122.45;;;115.65;;
29452;SDS011;16424;50.956;5.320;2024-02-21T11:11:37;120.25;;;113.60;;
29452;SDS011;16424;50.956;5.320;2024-02-21T11:14:08;120.80;;;114.50;;
29452;SDS011;16424;50.956;5.320;2024-02-21T11:16:36;119.00;;;112.43;;
29452;SDS011;16424;50.956;5.320;2024-02-21T11:19:04;122.50;;;115.82;;
29452;SDS011;16424;50.956;5.320;2024-02-21T11:21:36;133.27;;;125.78;;
29452;SDS011;16424;50.956;5.320;2024-02-21T11:24:05;118.72;;;112.03;;
29452;SDS011;16424;50.956;5.320;2024-02-21T11:26:31;124.30;;;117.50;;
29452;SDS011;16424;50.956;5.320;2024-02-21T11:29:01;119.25;;;112.78;;
29452;SDS011;16424;50.956;5.320;2024-02-21T11:31:40;119.57;;;112.95;;
29452;SDS011;16424;50.956;5.320;2024-02-21T11:34:10;119.95;;;113.30;;
29452;SDS011;16424;50.956;5.320;2024-02-21T11:41:47;118.80;;;112.22;;
29452;SDS011;16424;50.956;5.320;2024-02-21T11:44:13;114.63;;;108.30;;
29452;SDS011;16424;50.956;5.320;2024-02-21T11:46:38;118.45;;;112.13;;
29452;SDS011;16424;50.956;5.320;2024-02-21T11:49:04;117.07;;;111.00;;
29452;SDS011;16424;50.956;5.320;2024-02-21T11:51:31;122.38;;;115.43;;
29452;SDS011;16424;50.956;5.320;2024-02-21T11:53:56;122.10;;;115.68;;
29452;SDS011;16424;50.956;5.320;2024-02-21T11:56:22;125.85;;;119.00;;
29452;SDS011;16424;50.956;5.320;2024-02-21T11:58:48;127.15;;;120.25;;
29452;SDS011;16424;50.956;5.320;2024-02-21T12:01:14;120.80;;;114.57;;
29452;SDS011;16424;50.956;5.320;2024-02-21T12:03:40;117.82;;;111.35;;
29452;SDS011;16424;50.956;5.320;2024-02-21T12:06:07;119.95;;;113.47;;
29452;SDS011;16424;50.956;5.320;2024-02-21T12:08:42;118.00;;;111.70;;
29452;SDS011;16424;50.956;5.320;2024-02-21T12:14:01;116.18;;;109.82;;
29452;SDS011;16424;50.956;5.320;2024-02-21T12:16:28;138.48;;;130.68;;
29452;SDS011;16424;50.956;5.320;2024-02-21T12:18:56;125.60;;;118.07;;
29452;SDS011;16424;50.956;5.320;2024-02-21T12:21:32;125.25;;;118.03;;
29452;SDS011;16424;50.956;5.320;2024-02-21T12:24:11;123.13;;;116.53;;
29452;SDS011;16424;50.956;5.320;2024-02-21T12:26:40;124.07;;;117.35;;
29452;SDS011;16424;50.956;5.320;2024-02-21T12:29:06;123.47;;;117.03;;
29452;SDS011;16424;50.956;5.320;2024-02-21T12:31:35;120.38;;;114.00;;
29452;SDS011;16424;50.956;5.320;2024-02-21T12:34:01;119.03;;;112.80;;
29452;SDS011;16424;50.956;5.320;2024-02-21T12:36:27;119.10;;;112.70;;
29452;SDS011;16424;50.956;5.320;2024-02-21T12:38:53;122.68;;;115.57;;
29452;SDS011;16424;50.956;5.320;2024-02-21T12:41:19;122.45;;;116.05;;
29452;SDS011;16424;50.956;5.320;2024-02-21T12:43:45;126.53;;;119.65;;
29452;SDS011;16424;50.956;5.320;2024-02-21T12:46:10;120.60;;;114.13;;
29452;SDS011;16424;50.956;5.320;2024-02-21T12:48:36;129.13;;;122.05;;
29452;SDS011;16424;50.956;5.320;2024-02-21T12:51:02;122.22;;;115.68;;
29452;SDS011;16424;50.956;5.320;2024-02-21T12:53:28;120.50;;;114.20;;
29452;SDS011;16424;50.956;5.320;2024-02-21T12:55:55;117.80;;;111.40;;
29452;SDS011;16424;50.956;5.320;2024-02-21T12:58:21;119.28;;;112.90;;
29452;SDS011;16424;50.956;5.320;2024-02-21T13:00:47;175.07;;;165.70;;
29452;SDS011;16424;50.956;5.320;2024-02-21T13:03:13;117.22;;;111.25;;
29452;SDS011;16424;50.956;5.320;2024-02-21T13:05:39;125.60;;;118.22;;
29452;SDS011;16424;50.956;5.320;2024-02-21T13:08:05;120.32;;;114.05;;
29452;SDS011;16424;50.956;5.320;2024-02-21T13:10:32;120.68;;;114.38;;
29452;SDS011;16424;50.956;5.320;2024-02-21T13:13:01;117.28;;;111.07;;
29452;SDS011;16424;50.956;5.320;2024-02-21T13:15:27;120.15;;;113.65;;
29452;SDS011;16424;50.956;5.320;2024-02-21T13:17:53;118.85;;;112.63;;
29452;SDS011;16424;50.956;5.320;2024-02-21T13:20:20;119.07;;;112.68;;
29452;SDS011;16424;50.956;5.320;2024-02-21T13:22:46;122.85;;;116.10;;
29452;SDS011;16424;50.956;5.320;2024-02-21T13:25:12;118.60;;;112.13;;
29452;SDS011;16424;50.956;5.320;2024-02-21T13:27:43;120.32;;;114.18;;
29452;SDS011;16424;50.956;5.320;2024-02-21T13:30:09;113.82;;;107.97;;
29452;SDS011;16424;50.956;5.320;2024-02-21T13:32:35;122.57;;;116.32;;
29452;SDS011;16424;50.956;5.320;2024-02-21T13:35:01;111.47;;;105.47;;
29452;SDS011;16424;50.956;5.320;2024-02-21T13:37:28;117.15;;;110.72;;
29452;SDS011;16424;50.956;5.320;2024-02-21T13:39:54;191.55;;;181.23;;
29452;SDS011;16424;50.956;5.320;2024-02-21T13:42:20;118.65;;;112.57;;
29452;SDS011;16424;50.956;5.320;2024-02-21T13:44:45;115.60;;;109.63;;
29452;SDS011;16424;50.956;5.320;2024-02-21T13:47:12;119.80;;;113.57;;
29452;SDS011;16424;50.956;5.320;2024-02-21T13:49:39;110.65;;;104.68;;
29452;SDS011;16424;50.956;5.320;2024-02-21T13:52:06;114.07;;;108.07;;
29452;SDS011;16424;50.956;5.320;2024-02-21T13:54:31;114.13;;;107.97;;
29452;SDS011;16424;50.956;5.320;2024-02-21T13:56:57;118.45;;;112.30;;
29452;SDS011;16424;50.956;5.320;2024-02-21T13:59:23;112.95;;;107.28;;
29452;SDS011;16424;50.956;5.320;2024-02-21T14:01:49;113.80;;;108.05;;
29452;SDS011;16424;50.956;5.320;2024-02-21T14:04:14;116.20;;;110.15;;
29452;SDS011;16424;50.956;5.320;2024-02-21T14:06:40;114.35;;;108.38;;
29452;SDS011;16424;50.956;5.320;2024-02-21T14:09:09;113.45;;;107.55;;
29452;SDS011;16424;50.956;5.320;2024-02-21T14:11:35;176.63;;;167.20;;
29452;SDS011;16424;50.956;5.320;2024-02-21T14:14:02;113.63;;;107.47;;
29452;SDS011;16424;50.956;5.320;2024-02-21T14:16:28;116.22;;;110.03;;
29452;SDS011;16424;50.956;5.320;2024-02-21T14:18:54;116.88;;;110.47;;
29452;SDS011;16424;50.956;5.320;2024-02-21T14:21:20;116.57;;;110.47;;